createdAt,value
2024-03-01T00:00:00.497Z,926.98
2024-03-01T00:01:00.526Z,927.03
2024-03-01T00:02:00.584Z,927.05
2024-03-01T00:03:00.511Z,927.07
2024-03-01T00:04:00.407Z,927.12
2024-03-01T00:05:00.379Z,927.15
2024-03-01T00:06:00.396Z,927.16
2024-03-01T00:07:00.398Z,927.15
2024-03-01T00:08:00.528Z,927.13
2024-03-01T00:09:00.451Z,927.09
2024-03-01T00:10:00.414Z,927.08
2024-03-01T00:11:00.897Z,927.08
2024-03-01T00:12:00.344Z,927.07
2024-03-01T00:13:00.394Z,927.06
2024-03-01T00:14:00.394Z,927.04
2024-03-01T00:15:00.341Z,927.04
2024-03-01T00:16:00.324Z,927.06
2024-03-01T00:17:00.212Z,927.09
2024-03-01T00:18:00.255Z,927.12
2024-03-01T00:19:00.235Z,927.13
2024-03-01T00:20:00.763Z,927.16
2024-03-01T00:21:00.343Z,927.19
2024-03-01T00:22:00.278Z,927.22
2024-03-01T00:23:00.147Z,927.25
2024-03-01T00:24:00.157Z,927.28
2024-03-01T00:25:00.232Z,927.28
2024-03-01T00:26:00.354Z,927.28
2024-03-01T00:27:00.269Z,927.28
2024-03-01T00:28:00.216Z,927.27
2024-03-01T00:29:00.102Z,927.27
2024-03-01T00:30:00.111Z,927.25
2024-03-01T00:31:00.131Z,927.23
2024-03-01T00:32:00.415Z,927.21
2024-03-01T00:33:00.346Z,927.20
2024-03-01T00:34:00.148Z,927.19
2024-03-01T00:35:00.025Z,927.19
2024-03-01T00:36:00.034Z,927.20
2024-03-01T00:37:00.300Z,927.20
2024-03-01T00:38:00.235Z,927.20
2024-03-01T00:39:00.128Z,927.18
2024-03-01T00:40:00.084Z,927.14
2024-03-01T00:41:00.278Z,927.11
2024-03-01T00:41:59.968Z,927.09
2024-03-01T00:43:00.016Z,927.06
2024-03-01T00:44:00.367Z,927.05
2024-03-01T00:44:59.972Z,927.04
2024-03-01T00:46:00.123Z,927.05
2024-03-01T00:46:59.873Z,927.07
2024-03-01T00:47:59.928Z,927.10
2024-03-01T00:48:59.938Z,927.11
2024-03-01T00:50:00.606Z,927.11
2024-03-01T00:50:59.931Z,927.12
2024-03-01T00:51:59.894Z,927.16
2024-03-01T00:52:59.930Z,927.19
2024-03-01T00:53:59.838Z,927.21
2024-03-01T00:54:59.994Z,927.23
2024-03-01T00:55:59.941Z,927.25
2024-03-01T00:56:59.845Z,927.25
2024-03-01T00:57:59.918Z,927.27
2024-03-01T00:58:59.778Z,927.30
2024-03-01T00:59:59.869Z,927.32
2024-03-01T01:00:59.852Z,927.33
2024-03-01T01:02:09.567Z,927.33
2024-03-01T01:02:59.799Z,927.31
2024-03-01T01:03:59.738Z,927.31
2024-03-01T01:04:59.715Z,927.32
2024-03-01T01:05:59.708Z,927.33
2024-03-01T01:06:59.746Z,927.31
2024-03-01T01:07:59.942Z,927.29
2024-03-01T01:08:59.768Z,927.27
2024-03-01T01:09:59.840Z,927.26
2024-03-01T01:10:59.830Z,927.29
2024-03-01T01:11:59.714Z,927.34
2024-03-01T01:12:59.688Z,927.39
2024-03-01T01:13:59.766Z,927.43
2024-03-01T01:14:59.668Z,927.46
2024-03-01T01:15:59.718Z,927.47
2024-03-01T01:16:59.562Z,927.47
2024-03-01T01:17:59.686Z,927.44
2024-03-01T01:18:59.645Z,927.40
2024-03-01T01:19:59.791Z,927.35
2024-03-01T01:20:59.689Z,927.30
2024-03-01T01:21:59.690Z,927.25
2024-03-01T01:22:59.721Z,927.23
2024-03-01T01:23:59.565Z,927.24
2024-03-01T01:24:59.546Z,927.28
2024-03-01T01:25:59.983Z,927.35
2024-03-01T01:26:59.493Z,927.42
2024-03-01T01:27:59.546Z,927.48
2024-03-01T01:28:59.450Z,927.52
2024-03-01T01:29:59.476Z,927.53
2024-03-01T01:30:59.524Z,927.51
2024-03-01T01:31:59.602Z,927.46
2024-03-01T01:33:00.123Z,927.40
2024-03-01T01:33:59.457Z,927.34
2024-03-01T01:34:59.403Z,927.29
2024-03-01T01:35:59.502Z,927.25
2024-03-01T01:36:59.404Z,927.21
2024-03-01T01:38:00.064Z,927.17
2024-03-01T01:38:59.469Z,927.12
2024-03-01T01:39:59.336Z,927.08
2024-03-01T01:40:59.322Z,927.09
2024-03-01T01:41:59.345Z,927.12
2024-03-01T01:42:59.422Z,927.15
2024-03-01T01:43:59.946Z,927.18
2024-03-01T01:44:59.289Z,927.20
2024-03-01T01:45:59.374Z,927.21
2024-03-01T01:46:59.284Z,927.20
2024-03-01T01:47:59.455Z,927.18
2024-03-01T01:48:59.287Z,927.15
2024-03-01T01:49:59.335Z,927.13
2024-03-01T01:50:59.206Z,927.09
2024-03-01T01:51:59.367Z,927.06
2024-03-01T01:52:59.188Z,927.03
2024-03-01T01:53:59.204Z,927.02
2024-03-01T01:54:59.164Z,927.04
2024-03-01T01:55:59.327Z,927.08
2024-03-01T01:56:59.155Z,927.13
2024-03-01T01:57:59.163Z,927.17
2024-03-01T01:58:59.136Z,927.17
2024-03-01T01:59:59.146Z,927.17
2024-03-01T02:00:59.355Z,927.16
2024-03-01T02:01:59.340Z,927.17
2024-03-01T02:02:59.080Z,927.16
2024-03-01T02:03:59.142Z,927.17
2024-03-01T02:04:59.126Z,927.15
2024-03-01T02:05:59.182Z,927.14
2024-03-01T02:06:59.102Z,927.12
2024-03-01T02:07:59.207Z,927.12
2024-03-01T02:08:59.122Z,927.10
2024-03-01T02:09:59.043Z,927.09
2024-03-01T02:10:59.024Z,927.07
2024-03-01T02:11:59.083Z,927.04
2024-03-01T02:12:59.127Z,927.01
2024-03-01T02:13:59.415Z,927.00
2024-03-01T02:14:58.997Z,926.97
2024-03-01T02:15:58.994Z,926.92
2024-03-01T02:16:58.906Z,926.87
2024-03-01T02:17:59.435Z,926.82
2024-03-01T02:18:59.014Z,926.81
2024-03-01T02:19:59.119Z,926.82
2024-03-01T02:20:58.911Z,926.84
2024-03-01T02:21:58.985Z,926.87
2024-03-01T02:22:58.911Z,926.89
2024-03-01T02:23:58.907Z,926.93
2024-03-01T02:24:59.033Z,926.97
2024-03-01T02:25:58.916Z,927.01
2024-03-01T02:27:01.603Z,927.05
2024-03-01T02:27:58.905Z,927.06
2024-03-01T02:28:58.867Z,927.07
2024-03-01T02:29:58.854Z,927.07
2024-03-01T02:30:58.883Z,927.07
2024-03-01T02:31:59.288Z,927.07
2024-03-01T02:32:58.774Z,927.08
2024-03-01T02:33:58.799Z,927.09
2024-03-01T02:34:58.821Z,927.10
2024-03-01T02:35:58.826Z,927.09
2024-03-01T02:36:58.944Z,927.10
2024-03-01T02:37:58.902Z,927.11
2024-03-01T02:38:58.739Z,927.13
2024-03-01T02:39:58.797Z,927.16
2024-03-01T02:40:58.730Z,927.18
2024-03-01T02:41:58.731Z,927.21
2024-03-01T02:42:58.762Z,927.24
2024-03-01T02:43:59.780Z,927.27
2024-03-01T02:44:58.668Z,927.28
2024-03-01T02:45:58.733Z,927.27
2024-03-01T02:46:58.683Z,927.23
2024-03-01T02:47:58.758Z,927.18
2024-03-01T02:48:58.696Z,927.14
2024-03-01T02:49:58.705Z,927.12
2024-03-01T02:50:58.618Z,927.12
2024-03-01T02:51:58.627Z,927.13
2024-03-01T02:52:58.724Z,927.13
2024-03-01T02:53:58.619Z,927.15
2024-03-01T02:54:58.663Z,927.15
2024-03-01T02:55:58.733Z,927.14
2024-03-01T02:56:58.636Z,927.12
2024-03-01T02:57:58.563Z,927.08
2024-03-01T02:58:58.532Z,927.05
2024-03-01T02:59:58.675Z,927.03
2024-03-01T03:00:58.689Z,927.01
2024-03-01T03:01:58.682Z,927.00
2024-03-01T03:02:58.487Z,926.97
2024-03-01T03:03:58.505Z,926.93
2024-03-01T03:04:58.507Z,926.88
2024-03-01T03:05:59.216Z,926.86
2024-03-01T03:06:59.460Z,926.85
2024-03-01T03:07:58.700Z,926.85
2024-03-01T03:08:58.422Z,926.85
2024-03-01T03:09:58.446Z,926.83
2024-03-01T03:10:58.483Z,926.82
2024-03-01T03:11:58.448Z,926.82
2024-03-01T03:12:58.520Z,926.82
2024-03-01T03:13:58.456Z,926.83
2024-03-01T03:14:58.351Z,926.82
2024-03-01T03:15:58.420Z,926.80
2024-03-01T03:16:58.455Z,926.78
2024-03-01T03:17:58.416Z,926.78
2024-03-01T03:18:58.708Z,926.79
2024-03-01T03:19:58.684Z,926.81
2024-03-01T03:20:58.403Z,926.83
2024-03-01T03:21:58.392Z,926.83
2024-03-01T03:22:58.416Z,926.83
2024-03-01T03:23:58.300Z,926.82
2024-03-01T03:24:58.672Z,926.80
2024-03-01T03:25:58.430Z,926.79
2024-03-01T03:26:58.230Z,926.76
2024-03-01T03:27:58.292Z,926.74
2024-03-01T03:28:58.243Z,926.73
2024-03-01T03:29:58.244Z,926.74
2024-03-01T03:30:58.393Z,926.75
2024-03-01T03:31:58.285Z,926.76
2024-03-01T03:32:58.194Z,926.74
2024-03-01T03:33:58.263Z,926.73
2024-03-01T03:34:58.297Z,926.72
2024-03-01T03:35:58.192Z,926.73
2024-03-01T03:36:58.930Z,926.74
2024-03-01T03:37:58.184Z,926.74
2024-03-01T03:38:58.108Z,926.74
2024-03-01T03:39:58.270Z,926.74
2024-03-01T03:40:58.127Z,926.75
2024-03-01T03:41:58.813Z,926.76
2024-03-01T03:42:58.180Z,926.78
2024-03-01T03:43:58.036Z,926.80
2024-03-01T03:44:58.049Z,926.81
2024-03-01T03:45:58.070Z,926.81
2024-03-01T03:46:58.343Z,926.81
2024-03-01T03:47:58.528Z,926.81
2024-03-01T03:48:58.165Z,926.81
2024-03-01T03:49:58.111Z,926.81
2024-03-01T03:50:58.065Z,926.81
2024-03-01T03:51:58.123Z,926.79
2024-03-01T03:52:57.948Z,926.78
2024-03-01T03:53:58.397Z,926.77
2024-03-01T03:54:58.043Z,926.75
2024-03-01T03:55:57.928Z,926.72
2024-03-01T03:56:57.924Z,926.69
2024-03-01T03:57:57.949Z,926.67
2024-03-01T03:58:58.042Z,926.64
2024-03-01T03:59:57.965Z,926.64
2024-03-01T04:00:57.998Z,926.63
2024-03-01T04:01:57.946Z,926.62
2024-03-01T04:02:58.889Z,926.59
2024-03-01T04:03:57.993Z,926.57
2024-03-01T04:04:57.851Z,926.55
2024-03-01T04:05:57.891Z,926.56
2024-03-01T04:06:57.876Z,926.57
2024-03-01T04:07:57.891Z,926.57
2024-03-01T04:08:57.992Z,926.57
2024-03-01T04:09:57.976Z,926.58
2024-03-01T04:10:57.901Z,926.59
2024-03-01T04:11:57.804Z,926.59
2024-03-01T04:12:57.793Z,926.58
2024-03-01T04:13:57.825Z,926.55
2024-03-01T04:14:57.723Z,926.51
2024-03-01T04:15:57.766Z,926.47
2024-03-01T04:16:57.706Z,926.44
2024-03-01T04:17:58.437Z,926.42
2024-03-01T04:18:58.745Z,926.39
2024-03-01T04:19:57.779Z,926.37
2024-03-01T04:20:57.657Z,926.34
2024-03-01T04:21:57.720Z,926.33
2024-03-01T04:22:58.089Z,926.32
2024-03-01T04:23:57.686Z,926.30
2024-03-01T04:24:57.708Z,926.28
2024-03-01T04:25:58.590Z,926.25
2024-03-01T04:26:57.597Z,926.20
2024-03-01T04:27:57.635Z,926.16
2024-03-01T04:28:57.682Z,926.12
2024-03-01T04:29:57.615Z,926.10
2024-03-01T04:30:57.627Z,926.08
2024-03-01T04:31:57.702Z,926.04
2024-03-01T04:32:57.656Z,926.00
2024-03-01T04:33:57.699Z,925.94
2024-03-01T04:34:57.537Z,925.87
2024-03-01T04:35:58.070Z,925.81
2024-03-01T04:36:58.168Z,925.77
2024-03-01T04:37:57.652Z,925.76
2024-03-01T04:38:57.576Z,925.77
2024-03-01T04:39:57.554Z,925.77
2024-03-01T04:40:57.489Z,925.76
2024-03-01T04:41:57.983Z,925.73
2024-03-01T04:42:57.531Z,925.69
2024-03-01T04:43:57.515Z,925.65
2024-03-01T04:44:57.419Z,925.62
2024-03-01T04:45:57.470Z,925.62
2024-03-01T04:46:57.446Z,925.62
2024-03-01T04:47:58.111Z,925.61
2024-03-01T04:48:57.481Z,925.59
2024-03-01T04:49:58.150Z,925.57
2024-03-01T04:50:57.354Z,925.54
2024-03-01T04:51:58.223Z,925.52
2024-03-01T04:52:57.351Z,925.49
2024-03-01T04:53:57.491Z,925.49
2024-03-01T04:54:57.422Z,925.49
2024-03-01T04:55:57.294Z,925.49
2024-03-01T04:56:57.294Z,925.49
2024-03-01T04:57:57.683Z,925.49
2024-03-01T04:58:57.287Z,925.51
2024-03-01T04:59:57.351Z,925.53
2024-03-01T05:00:57.455Z,925.55
2024-03-01T05:01:57.334Z,925.56
2024-03-01T05:02:57.235Z,925.55
2024-03-01T05:03:57.215Z,925.53
2024-03-01T05:04:57.211Z,925.51
2024-03-01T05:05:57.221Z,925.50
2024-03-01T05:06:57.272Z,925.49
2024-03-01T05:07:57.191Z,925.48
2024-03-01T05:08:57.237Z,925.47
2024-03-01T05:09:57.233Z,925.43
2024-03-01T05:10:57.783Z,925.39
2024-03-01T05:11:57.440Z,925.35
2024-03-01T05:12:57.361Z,925.34
2024-03-01T05:13:57.218Z,925.35
2024-03-01T05:14:57.118Z,925.36
2024-03-01T05:15:57.113Z,925.37
2024-03-01T05:16:57.196Z,925.37
2024-03-01T05:17:57.631Z,925.35
2024-03-01T05:18:57.231Z,925.34
2024-03-01T05:19:57.163Z,925.34
2024-03-01T05:20:57.224Z,925.34
2024-03-01T05:21:57.059Z,925.36
2024-03-01T05:22:57.109Z,925.39
2024-03-01T05:23:57.049Z,925.40
2024-03-01T05:24:57.180Z,925.41
2024-03-01T05:25:57.152Z,925.41
2024-03-01T05:26:56.956Z,925.41
2024-03-01T05:27:57.510Z,925.39
2024-03-01T05:28:57.068Z,925.38
2024-03-01T05:29:56.976Z,925.38
2024-03-01T05:31:03.748Z,925.38
2024-03-01T05:31:57.148Z,925.35
2024-03-01T05:32:57.051Z,925.33
2024-03-01T05:33:57.022Z,925.31
2024-03-01T05:34:56.920Z,925.30
2024-03-01T05:35:57.036Z,925.29
2024-03-01T05:36:56.944Z,925.27
2024-03-01T05:37:56.950Z,925.24
2024-03-01T05:38:56.935Z,925.20
2024-03-01T05:39:56.923Z,925.18
2024-03-01T05:40:57.111Z,925.15
2024-03-01T05:41:56.908Z,925.16
2024-03-01T05:42:57.606Z,925.18
2024-03-01T05:43:56.874Z,925.20
2024-03-01T05:44:56.778Z,925.20
2024-03-01T05:45:56.817Z,925.18
2024-03-01T05:46:56.808Z,925.14
2024-03-01T05:47:56.821Z,925.11
2024-03-01T05:48:56.737Z,925.07
2024-03-01T05:49:56.809Z,925.04
2024-03-01T05:50:56.737Z,925.02
2024-03-01T05:51:56.763Z,925.01
2024-03-01T05:52:56.726Z,924.99
2024-03-01T05:53:56.737Z,924.97
2024-03-01T05:54:56.687Z,924.95
2024-03-01T05:55:56.692Z,924.95
2024-03-01T05:56:56.670Z,924.94
2024-03-01T05:57:56.713Z,924.94
2024-03-01T05:58:56.774Z,924.94
2024-03-01T05:59:56.674Z,924.93
2024-03-01T06:00:56.799Z,924.92
2024-03-01T06:01:56.719Z,924.91
2024-03-01T06:02:58.729Z,924.93
2024-03-01T06:03:56.604Z,924.94
2024-03-01T06:04:56.639Z,924.95
2024-03-01T06:05:56.633Z,924.94
2024-03-01T06:06:56.580Z,924.92
2024-03-01T06:07:56.546Z,924.89
2024-03-01T06:08:56.593Z,924.87
2024-03-01T06:09:56.620Z,924.87
2024-03-01T06:10:56.625Z,924.89
2024-03-01T06:11:56.663Z,924.91
2024-03-01T06:12:59.171Z,924.93
2024-03-01T06:13:56.466Z,924.94
2024-03-01T06:14:56.468Z,924.94
2024-03-01T06:15:56.535Z,924.93
2024-03-01T06:16:56.430Z,924.92
2024-03-01T06:17:56.492Z,924.91
2024-03-01T06:18:58.460Z,924.89
2024-03-01T06:19:56.390Z,924.87
2024-03-01T06:20:56.412Z,924.86
2024-03-01T06:21:56.473Z,924.85
2024-03-01T06:22:56.361Z,924.85
2024-03-01T06:23:56.437Z,924.83
2024-03-01T06:24:56.393Z,924.81
2024-03-01T06:25:56.329Z,924.79
2024-03-01T06:26:56.460Z,924.76
2024-03-01T06:27:56.379Z,924.73
2024-03-01T06:28:56.267Z,924.70
2024-03-01T06:29:56.321Z,924.68
2024-03-01T06:30:56.360Z,924.66
2024-03-01T06:31:56.303Z,924.65
2024-03-01T06:32:56.304Z,924.62
2024-03-01T06:33:56.325Z,924.60
2024-03-01T06:34:56.212Z,924.57
2024-03-01T06:35:56.270Z,924.55
2024-03-01T06:36:56.318Z,924.52
2024-03-01T06:37:56.213Z,924.50
2024-03-01T06:38:56.317Z,924.51
2024-03-01T06:39:56.315Z,924.52
2024-03-01T06:40:56.216Z,924.54
2024-03-01T06:41:56.250Z,924.57
2024-03-01T06:42:56.233Z,924.59
2024-03-01T06:43:56.171Z,924.59
2024-03-01T06:44:56.159Z,924.58
2024-03-01T06:45:56.212Z,924.56
2024-03-01T06:46:56.132Z,924.53
2024-03-01T06:47:56.158Z,924.52
2024-03-01T06:48:56.224Z,924.50
2024-03-01T06:49:56.151Z,924.50
2024-03-01T06:50:56.157Z,924.50
2024-03-01T06:51:56.610Z,924.49
2024-03-01T06:52:56.066Z,924.48
2024-03-01T06:53:56.146Z,924.47
2024-03-01T06:54:56.286Z,924.48
2024-03-01T06:55:56.089Z,924.49
2024-03-01T06:56:56.056Z,924.50
2024-03-01T06:57:56.333Z,924.53
2024-03-01T06:58:56.123Z,924.56
2024-03-01T06:59:56.075Z,924.57
2024-03-01T07:00:56.218Z,924.57
2024-03-01T07:01:56.151Z,924.56
2024-03-01T07:02:56.040Z,924.55
2024-03-01T07:03:55.971Z,924.55
2024-03-01T07:04:56.057Z,924.55
2024-03-01T07:05:56.053Z,924.55
2024-03-01T07:06:56.023Z,924.55
2024-03-01T07:07:55.915Z,924.55
2024-03-01T07:08:56.083Z,924.55
2024-03-01T07:09:56.009Z,924.54
2024-03-01T07:10:56.036Z,924.54
2024-03-01T07:11:56.060Z,924.55
2024-03-01T07:12:55.897Z,924.56
2024-03-01T07:13:55.917Z,924.57
2024-03-01T07:14:55.918Z,924.58
2024-03-01T07:15:56.728Z,924.57
2024-03-01T07:16:55.934Z,924.56
2024-03-01T07:17:55.998Z,924.55
2024-03-01T07:18:55.893Z,924.54
2024-03-01T07:19:55.799Z,924.54
2024-03-01T07:20:55.851Z,924.53
2024-03-01T07:21:55.976Z,924.53
2024-03-01T07:22:55.813Z,924.52
2024-03-01T07:23:55.720Z,924.53
2024-03-01T07:24:55.978Z,924.53
2024-03-01T07:25:55.778Z,924.54
2024-03-01T07:26:55.767Z,924.53
2024-03-01T07:27:55.922Z,924.52
2024-03-01T07:28:55.810Z,924.51
2024-03-01T07:29:56.123Z,924.52
2024-03-01T07:30:55.742Z,924.53
2024-03-01T07:31:55.728Z,924.54
2024-03-01T07:32:55.861Z,924.55
2024-03-01T07:33:55.859Z,924.55
2024-03-01T07:34:55.666Z,924.57
2024-03-01T07:35:55.656Z,924.58
2024-03-01T07:36:55.724Z,924.59
2024-03-01T07:37:56.182Z,924.59
2024-03-01T07:38:55.568Z,924.59
2024-03-01T07:39:55.733Z,924.58
2024-03-01T07:40:55.654Z,924.56
2024-03-01T07:41:56.039Z,924.54
2024-03-01T07:42:55.638Z,924.52
2024-03-01T07:43:55.507Z,924.51
2024-03-01T07:44:55.643Z,924.51
2024-03-01T07:45:55.637Z,924.50
2024-03-01T07:46:55.536Z,924.48
2024-03-01T07:47:55.534Z,924.46
2024-03-01T07:48:55.533Z,924.44
2024-03-01T07:49:55.543Z,924.43
2024-03-01T07:50:55.464Z,924.44
2024-03-01T07:51:55.693Z,924.46
2024-03-01T07:52:55.532Z,924.48
2024-03-01T07:53:55.438Z,924.49
2024-03-01T07:54:55.631Z,924.49
2024-03-01T07:55:55.687Z,924.47
2024-03-01T07:56:55.419Z,924.45
2024-03-01T07:57:55.628Z,924.45
2024-03-01T07:58:55.472Z,924.46
2024-03-01T07:59:55.405Z,924.48
2024-03-01T08:00:55.537Z,924.51
2024-03-01T08:01:55.458Z,924.53
2024-03-01T08:02:55.427Z,924.55
2024-03-01T08:03:57.545Z,924.56
2024-03-01T08:04:55.350Z,924.56
2024-03-01T08:05:55.275Z,924.55
2024-03-01T08:06:55.354Z,924.55
2024-03-01T08:07:55.386Z,924.56
2024-03-01T08:08:55.721Z,924.57
2024-03-01T08:09:55.367Z,924.60
2024-03-01T08:10:55.386Z,924.62
2024-03-01T08:11:55.289Z,924.62
2024-03-01T08:12:55.512Z,924.62
2024-03-01T08:13:55.382Z,924.61
2024-03-01T08:14:55.498Z,924.60
2024-03-01T08:15:55.253Z,924.59
2024-03-01T08:16:55.192Z,924.58
2024-03-01T08:17:55.303Z,924.60
2024-03-01T08:18:55.200Z,924.63
2024-03-01T08:19:55.207Z,924.65
2024-03-01T08:20:55.407Z,924.65
2024-03-01T08:21:55.278Z,924.66
2024-03-01T08:22:55.186Z,924.67
2024-03-01T08:23:55.235Z,924.68
2024-03-01T08:24:55.215Z,924.70
2024-03-01T08:25:55.155Z,924.72
2024-03-01T08:26:55.254Z,924.73
2024-03-01T08:27:55.141Z,924.72
2024-03-01T08:28:55.016Z,924.70
2024-03-01T08:29:55.448Z,924.67
2024-03-01T08:30:55.116Z,924.66
2024-03-01T08:31:55.096Z,924.64
2024-03-01T08:32:55.200Z,924.64
2024-03-01T08:33:55.138Z,924.63
2024-03-01T08:34:55.114Z,924.62
2024-03-01T08:35:55.105Z,924.62
2024-03-01T08:36:55.072Z,924.62
2024-03-01T08:37:55.230Z,924.62
2024-03-01T08:38:55.041Z,924.64
2024-03-01T08:39:55.022Z,924.66
2024-03-01T08:40:55.046Z,924.68
2024-03-01T08:41:54.961Z,924.71
2024-03-01T08:42:54.963Z,924.70
2024-03-01T08:43:54.959Z,924.69
2024-03-01T08:44:54.960Z,924.67
2024-03-01T08:45:55.024Z,924.63
2024-03-01T08:46:55.034Z,924.61
2024-03-01T08:47:54.874Z,924.62
2024-03-01T08:48:54.899Z,924.64
2024-03-01T08:49:57.196Z,924.66
2024-03-01T08:50:55.012Z,924.67
2024-03-01T08:51:54.783Z,924.69
2024-03-01T08:52:54.997Z,924.71
2024-03-01T08:53:54.721Z,924.74
2024-03-01T08:54:54.850Z,924.79
2024-03-01T08:55:54.853Z,924.82
2024-03-01T08:56:54.959Z,924.85
2024-03-01T08:57:54.802Z,924.84
2024-03-01T08:58:54.864Z,924.82
2024-03-01T08:59:54.748Z,924.81
2024-03-01T09:00:55.044Z,924.80
2024-03-01T09:01:54.830Z,924.81
2024-03-01T09:02:54.658Z,924.81
2024-03-01T09:03:54.716Z,924.80
2024-03-01T09:04:54.708Z,924.79
2024-03-01T09:05:54.706Z,924.76
2024-03-01T09:06:54.730Z,924.73
2024-03-01T09:07:54.625Z,924.70
2024-03-01T09:08:54.598Z,924.70
2024-03-01T09:09:54.667Z,924.72
2024-03-01T09:10:54.680Z,924.75
2024-03-01T09:11:54.549Z,924.77
2024-03-01T09:12:54.574Z,924.77
2024-03-01T09:13:54.527Z,924.78
2024-03-01T09:14:54.642Z,924.79
2024-03-01T09:15:54.553Z,924.81
2024-03-01T09:16:54.478Z,924.84
2024-03-01T09:17:54.559Z,924.89
2024-03-01T09:18:54.568Z,924.93
2024-03-01T09:19:54.585Z,924.98
2024-03-01T09:20:54.479Z,925.01
2024-03-01T09:21:54.526Z,925.03
2024-03-01T09:22:54.425Z,925.05
2024-03-01T09:23:54.543Z,925.05
2024-03-01T09:24:54.425Z,925.06
2024-03-01T09:25:54.450Z,925.06
2024-03-01T09:26:54.408Z,925.07
2024-03-01T09:27:54.446Z,925.06
2024-03-01T09:28:54.367Z,925.05
2024-03-01T09:29:54.371Z,925.05
2024-03-01T09:30:54.509Z,925.05
2024-03-01T09:31:54.383Z,925.05
2024-03-01T09:32:54.499Z,925.04
2024-03-01T09:33:54.416Z,925.04
2024-03-01T09:34:54.508Z,925.03
2024-03-01T09:35:54.406Z,925.02
2024-03-01T09:36:54.542Z,925.02
2024-03-01T09:37:54.316Z,925.02
2024-03-01T09:38:54.294Z,925.03
2024-03-01T09:39:54.314Z,925.03
2024-03-01T09:40:54.213Z,925.03
2024-03-01T09:41:54.281Z,925.03
2024-03-01T09:42:54.288Z,925.03
2024-03-01T09:43:54.269Z,925.03
2024-03-01T09:44:54.218Z,925.04
2024-03-01T09:45:54.257Z,925.06
2024-03-01T09:46:54.273Z,925.08
2024-03-01T09:47:54.340Z,925.10
2024-03-01T09:48:54.190Z,925.12
2024-03-01T09:49:54.184Z,925.13
2024-03-01T09:50:54.152Z,925.14
2024-03-01T09:51:54.247Z,925.16
2024-03-01T09:52:54.129Z,925.16
2024-03-01T09:53:54.078Z,925.17
2024-03-01T09:54:54.151Z,925.17
2024-03-01T09:55:54.102Z,925.17
2024-03-01T09:56:54.112Z,925.17
2024-03-01T09:57:54.116Z,925.20
2024-03-01T09:58:54.124Z,925.22
2024-03-01T09:59:54.038Z,925.24
2024-03-01T10:00:54.151Z,925.26
2024-03-01T10:01:54.125Z,925.29
2024-03-01T10:02:54.079Z,925.33
2024-03-01T10:03:54.064Z,925.37
2024-03-01T10:04:54.088Z,925.40
2024-03-01T10:05:55.576Z,925.44
2024-03-01T10:06:53.991Z,925.45
2024-03-01T10:07:53.972Z,925.47
2024-03-01T10:08:53.984Z,925.49
2024-03-01T10:09:53.990Z,925.51
2024-03-01T10:10:53.983Z,925.52
2024-03-01T10:11:54.009Z,925.55
2024-03-01T10:12:53.990Z,925.58
2024-03-01T10:13:53.917Z,925.61
2024-03-01T10:14:53.912Z,925.63
2024-03-01T10:15:53.929Z,925.64
2024-03-01T10:16:53.851Z,925.64
2024-03-01T10:17:53.921Z,925.63
2024-03-01T10:18:53.903Z,925.64
2024-03-01T10:19:53.849Z,925.65
2024-03-01T10:20:53.806Z,925.66
2024-03-01T10:21:53.890Z,925.66
2024-03-01T10:22:53.830Z,925.66
2024-03-01T10:23:53.786Z,925.65
2024-03-01T10:24:53.909Z,925.65
2024-03-01T10:25:53.834Z,925.65
2024-03-01T10:26:53.814Z,925.65
2024-03-01T10:27:53.758Z,925.65
2024-03-01T10:28:53.721Z,925.66
2024-03-01T10:29:53.838Z,925.66
2024-03-01T10:30:53.788Z,925.65
2024-03-01T10:31:53.743Z,925.62
2024-03-01T10:32:53.786Z,925.59
2024-03-01T10:33:53.779Z,925.59
2024-03-01T10:34:53.718Z,925.58
2024-03-01T10:35:53.654Z,925.58
2024-03-01T10:36:53.694Z,925.57
2024-03-01T10:37:53.719Z,925.58
2024-03-01T10:38:53.669Z,925.59
2024-03-01T10:39:53.681Z,925.60
2024-03-01T10:40:53.604Z,925.61
2024-03-01T10:41:53.620Z,925.63
2024-03-01T10:42:53.599Z,925.64
2024-03-01T10:43:53.730Z,925.66
2024-03-01T10:44:53.602Z,925.66
2024-03-01T10:45:53.653Z,925.67
2024-03-01T10:46:53.547Z,925.70
2024-03-01T10:47:53.582Z,925.72
2024-03-01T10:48:53.633Z,925.75
2024-03-01T10:49:53.536Z,925.78
2024-03-01T10:50:53.670Z,925.80
2024-03-01T10:51:53.562Z,925.81
2024-03-01T10:52:53.521Z,925.83
2024-03-01T10:53:53.548Z,925.86
2024-03-01T10:54:53.486Z,925.89
2024-03-01T10:55:53.538Z,925.94
2024-03-01T10:56:53.493Z,925.95
2024-03-01T10:57:53.406Z,925.97
2024-03-01T10:58:53.470Z,925.98
2024-03-01T10:59:53.414Z,925.97
2024-03-01T11:00:53.507Z,925.98
2024-03-01T11:01:53.954Z,925.99
2024-03-01T11:02:53.435Z,926.01
2024-03-01T11:03:53.468Z,926.02
2024-03-01T11:04:53.438Z,926.03
2024-03-01T11:05:53.466Z,926.04
2024-03-01T11:06:53.523Z,926.03
2024-03-01T11:07:53.614Z,926.02
2024-03-01T11:08:53.387Z,925.99
2024-03-01T11:09:53.332Z,926.00
2024-03-01T11:10:53.379Z,926.02
2024-03-01T11:11:53.339Z,926.03
2024-03-01T11:12:53.502Z,926.04
2024-03-01T11:13:53.524Z,926.05
2024-03-01T11:14:53.418Z,926.05
2024-03-01T11:15:53.373Z,926.05
2024-03-01T11:16:53.257Z,926.07
2024-03-01T11:17:53.260Z,926.10
2024-03-01T11:18:53.254Z,926.09
2024-03-01T11:19:53.322Z,926.09
2024-03-01T11:20:53.405Z,926.11
2024-03-01T11:21:53.406Z,926.13
2024-03-01T11:22:53.204Z,926.13
2024-03-01T11:23:57.142Z,926.12
2024-03-01T11:24:53.356Z,926.12
2024-03-01T11:25:53.353Z,926.12
2024-03-01T11:26:53.106Z,926.15
2024-03-01T11:27:53.115Z,926.17
2024-03-01T11:28:53.110Z,926.21
2024-03-01T11:29:53.554Z,926.21
2024-03-01T11:30:53.526Z,926.24
2024-03-01T11:31:53.583Z,926.25
2024-03-01T11:32:53.092Z,926.27
2024-03-01T11:33:53.032Z,926.26
2024-03-01T11:34:53.064Z,926.25
2024-03-01T11:35:53.179Z,926.26
2024-03-01T11:36:53.076Z,926.25
2024-03-01T11:37:53.163Z,926.25
2024-03-01T11:38:53.168Z,926.27
2024-03-01T11:39:53.000Z,926.28
2024-03-01T11:40:53.008Z,926.30
2024-03-01T11:41:54.595Z,926.28
2024-03-01T11:42:53.189Z,926.27
2024-03-01T11:43:53.759Z,926.23
2024-03-01T11:44:53.011Z,926.21
2024-03-01T11:45:52.922Z,926.23
2024-03-01T11:46:53.139Z,926.25
2024-03-01T11:47:53.072Z,926.27
2024-03-01T11:48:52.990Z,926.29
2024-03-01T11:49:54.200Z,926.30
2024-03-01T11:50:52.862Z,926.33
2024-03-01T11:51:53.529Z,926.36
2024-03-01T11:52:52.988Z,926.40
2024-03-01T11:53:52.986Z,926.44
2024-03-01T11:54:52.921Z,926.47
2024-03-01T11:55:53.001Z,926.47
2024-03-01T11:56:53.245Z,926.44
2024-03-01T11:57:53.131Z,926.41
2024-03-01T11:58:53.061Z,926.39
2024-03-01T11:59:52.932Z,926.41
2024-03-01T12:00:52.983Z,926.41
2024-03-01T12:01:53.266Z,926.40
2024-03-01T12:02:52.753Z,926.40
2024-03-01T12:03:52.898Z,926.39
2024-03-01T12:04:52.769Z,926.37
2024-03-01T12:05:53.160Z,926.36
2024-03-01T12:06:52.772Z,926.38
2024-03-01T12:07:52.787Z,926.37
2024-03-01T12:08:52.885Z,926.37
2024-03-01T12:09:52.694Z,926.38
2024-03-01T12:10:52.982Z,926.37
2024-03-01T12:11:53.596Z,926.36
2024-03-01T12:12:53.010Z,926.32
2024-03-01T12:13:52.689Z,926.32
2024-03-01T12:14:52.711Z,926.34
2024-03-01T12:15:52.612Z,926.35
2024-03-01T12:16:52.950Z,926.38
2024-03-01T12:17:53.076Z,926.41
2024-03-01T12:18:52.652Z,926.40
2024-03-01T12:19:53.064Z,926.42
2024-03-01T12:20:52.585Z,926.44
2024-03-01T12:21:52.556Z,926.46
2024-03-01T12:22:52.849Z,926.48
2024-03-01T12:23:52.633Z,926.48
2024-03-01T12:24:52.779Z,926.49
2024-03-01T12:25:52.636Z,926.49
2024-03-01T12:26:52.702Z,926.49
2024-03-01T12:27:52.588Z,926.50